Time,TemperatureF,DewpointF,PressureIn,WindDirection,WindDirectionDegrees,WindSpeedMPH,WindSpeedGustMPH,Humidity,HourlyPrecipIn,Conditions,Clouds,dailyrainin,SoftwareType,DateUTC
2013-06-07 00:01:00,67.0,0.0,29.65,North,0,0.0,0.0,0,0.02,,,0.00,WUHU216HW,2013-06-07 04:01:00,
2013-06-07 00:02:00,67.0,0.0,29.65,North,0,0.0,0.0,0,0.02,,,0.00,WUHU216HW,2013-06-07 04:02:00,
2013-06-07 00:07:00,67.0,0.0,29.65,North,0,0.0,0.0,0,0.02,,,0.00,WUHU216HW,2013-06-07 04:07:00,
2013-06-07 00:12:00,66.8,0.0,29.65,North,0,0.0,0.0,0,0.02,,,0.00,WUHU216HW,2013-06-07 04:12:00,
2013-06-07 00:17:00,66.8,0.0,29.65,North,0,0.0,0.0,0,0.02,,,0.00,WUHU216HW,2013-06-07 04:17:00,
2013-06-07 00:22:00,66.8,0.0,29.65,North,0,0.0,0.0,0,0.02,,,0.00,WUHU216HW,2013-06-07 04:22:00,
2013-06-07 00:27:00,66.6,0.0,29.65,North,0,0.0,0.0,0,0.02,,,0.00,WUHU216HW,2013-06-07 04:27:00,
2013-06-07 00:32:00,66.6,0.0,29.65,North,0,0.0,0.0,0,0.02,,,0.00,WUHU216HW,2013-06-07 04:32:00,
2013-06-07 00:37:00,66.6,0.0,29.64,North,0,0.0,0.0,0,0.02,,,0.00,WUHU216HW,2013-06-07 04:37:00,
2013-06-07 00:42:00,66.6,0.0,29.64,North,0,0.0,0.0,0,0.00,,,0.00,WUHU216HW,2013-06-07 04:42:00,
2013-06-07 00:47:00,66.4,0.0,29.64,North,0,0.0,0.0,0,0.00,,,0.00,WUHU216HW,2013-06-07 04:47:00,
2013-06-07 00:52:00,66.4,0.0,29.64,North,0,0.0,0.0,0,0.00,,,0.00,WUHU216HW,2013-06-07 04:52:00,
2013-06-07 00:57:00,66.4,0.0,29.64,North,0,0.0,0.0,0,0.00,,,0.00,WUHU216HW,2013-06-07 04:57:00,
2013-06-07 01:02:00,66.2,0.0,29.64,North,0,0.0,0.0,0,0.00,,,0.00,WUHU216HW,2013-06-07 05:02:00,
2013-06-07 01:07:00,66.2,0.0,29.64,North,0,0.0,0.0,0,0.00,,,0.00,WUHU216HW,2013-06-07 05:07:00,
2013-06-07 01:12:00,66.2,0.0,29.63,North,0,0.0,0.0,0,0.00,,,0.00,WUHU216HW,2013-06-07 05:12:00,
2013-06-07 01:17:00,66.2,0.0,29.63,North,0,0.0,0.0,0,0.00,,,0.00,WUHU216HW,2013-06-07 05:17:00,
2013-06-07 01:22:00,66.2,0.0,29.63,North,0,0.0,0.0,0,0.00,,,0.00,WUHU216HW,2013-06-07 05:22:00,
2013-06-07 01:27:00,66.1,0.0,29.63,North,0,0.0,0.0,0,0.02,,,0.02,WUHU216HW,2013-06-07 05:27:00,
2013-06-07 01:32:00,66.1,0.0,29.63,North,0,0.0,0.0,0,0.02,,,0.02,WUHU216HW,2013-06-07 05:32:00,
2013-06-07 01:37:00,65.9,0.0,29.63,North,0,0.0,0.0,0,0.02,,,0.02,WUHU216HW,2013-06-07 05:37:00,
2013-06-07 01:42:00,65.9,0.0,29.62,North,0,0.0,0.0,0,0.02,,,0.02,WUHU216HW,2013-06-07 05:42:00,
2013-06-07 01:47:00,65.9,0.0,29.62,North,0,0.0,0.0,0,0.02,,,0.02,WUHU216HW,2013-06-07 05:47:00,
2013-06-07 01:52:00,65.9,0.0,29.62,North,0,0.0,0.0,0,0.02,,,0.02,WUHU216HW,2013-06-07 05:52:00,
2013-06-07 01:57:00,65.7,0.0,29.62,North,0,0.0,0.0,0,0.05,,,0.05,WUHU216HW,2013-06-07 05:57:00,
2013-06-07 02:02:00,65.7,0.0,29.62,North,0,0.0,0.0,0,0.05,,,0.05,WUHU216HW,2013-06-07 06:02:00,
2013-06-07 02:07:00,65.7,0.0,29.62,North,0,0.0,0.0,0,0.05,,,0.05,WUHU216HW,2013-06-07 06:07:00,
2013-06-07 02:12:00,65.7,0.0,29.61,North,0,0.0,0.0,0,0.05,,,0.05,WUHU216HW,2013-06-07 06:12:00,
2013-06-07 02:17:00,65.7,0.0,29.61,North,0,0.0,0.0,0,0.05,,,0.05,WUHU216HW,2013-06-07 06:17:00,
2013-06-07 02:22:00,65.7,0.0,29.61,North,0,0.0,0.0,0,0.05,,,0.05,WUHU216HW,2013-06-07 06:22:00,
2013-06-07 02:27:00,65.7,0.0,29.61,North,0,0.0,0.0,0,0.03,,,0.05,WUHU216HW,2013-06-07 06:27:00,
2013-06-07 02:32:00,65.7,0.0,29.60,North,0,0.0,0.0,0,0.05,,,0.07,WUHU216HW,2013-06-07 06:32:00,
2013-06-07 02:37:00,65.7,0.0,29.60,North,0,0.0,0.0,0,0.05,,,0.07,WUHU216HW,2013-06-07 06:37:00,
2013-06-07 02:42:00,65.7,0.0,29.60,North,0,0.0,0.0,0,0.07,,,0.09,WUHU216HW,2013-06-07 06:42:00,
2013-06-07 02:47:00,65.7,0.0,29.59,North,0,0.0,0.0,0,0.07,,,0.09,WUHU216HW,2013-06-07 06:47:00,
2013-06-07 02:52:00,65.7,0.0,29.59,North,0,0.0,0.0,0,0.09,,,0.11,WUHU216HW,2013-06-07 06:52:00,
2013-06-07 02:57:00,65.7,0.0,29.59,North,0,0.0,0.0,0,0.08,,,0.13,WUHU216HW,2013-06-07 06:57:00,
2013-06-07 03:02:00,65.7,0.0,29.58,North,0,0.0,0.0,0,0.10,,,0.15,WUHU216HW,2013-06-07 07:02:00,
2013-06-07 03:07:00,65.7,0.0,29.58,North,0,0.0,0.0,0,0.12,,,0.17,WUHU216HW,2013-06-07 07:07:00,
2013-06-07 03:12:00,65.7,0.0,29.58,North,0,0.0,0.0,0,0.12,,,0.17,WUHU216HW,2013-06-07 07:12:00,
2013-06-07 03:17:00,65.7,0.0,29.58,North,0,0.0,0.0,0,0.15,,,0.20,WUHU216HW,2013-06-07 07:17:00,
2013-06-07 03:22:00,65.7,0.0,29.58,North,0,0.0,0.0,0,0.15,,,0.20,WUHU216HW,2013-06-07 07:22:00,
2013-06-07 03:27:00,65.7,0.0,29.57,North,0,0.0,0.0,0,0.13,,,0.20,WUHU216HW,2013-06-07 07:27:00,
2013-06-07 03:32:00,65.7,0.0,29.57,North,0,0.0,0.0,0,0.13,,,0.20,WUHU216HW,2013-06-07 07:32:00,
2013-06-07 03:37:00,65.7,0.0,29.57,North,0,0.0,0.0,0,0.13,,,0.20,WUHU216HW,2013-06-07 07:37:00,
2013-06-07 03:42:00,65.7,0.0,29.57,North,0,0.0,0.0,0,0.11,,,0.20,WUHU216HW,2013-06-07 07:42:00,
2013-06-07 03:47:00,65.7,0.0,29.57,North,0,0.0,0.0,0,0.11,,,0.20,WUHU216HW,2013-06-07 07:47:00,
2013-06-07 03:52:00,65.7,0.0,29.57,North,0,0.0,0.0,0,0.09,,,0.20,WUHU216HW,2013-06-07 07:52:00,
2013-06-07 03:57:00,65.7,0.0,29.56,North,0,0.0,0.0,0,0.07,,,0.20,WUHU216HW,2013-06-07 07:57:00,
2013-06-07 04:02:00,65.7,0.0,29.56,North,0,0.0,0.0,0,0.05,,,0.20,WUHU216HW,2013-06-07 08:02:00,
2013-06-07 04:07:00,65.7,0.0,29.56,North,0,0.0,0.0,0,0.03,,,0.20,WUHU216HW,2013-06-07 08:07:00,
2013-06-07 04:12:00,65.7,0.0,29.55,North,0,0.0,0.0,0,0.03,,,0.20,WUHU216HW,2013-06-07 08:12:00,
2013-06-07 04:17:00,65.7,0.0,29.55,North,0,0.0,0.0,0,0.00,,,0.20,WUHU216HW,2013-06-07 08:17:00,
2013-06-07 04:22:00,65.7,0.0,29.55,North,0,0.0,0.0,0,0.00,,,0.20,WUHU216HW,2013-06-07 08:22:00,
2013-06-07 04:27:00,65.7,0.0,29.55,North,0,0.0,0.0,0,0.00,,,0.20,WUHU216HW,2013-06-07 08:27:00,
2013-06-07 04:32:00,65.7,0.0,29.55,North,0,0.0,0.0,0,0.00,,,0.20,WUHU216HW,2013-06-07 08:32:00,
2013-06-07 04:37:00,65.7,0.0,29.55,North,0,0.0,0.0,0,0.00,,,0.20,WUHU216HW,2013-06-07 08:37:00,
2013-06-07 04:42:00,65.7,0.0,29.54,North,0,0.0,0.0,0,0.00,,,0.20,WUHU216HW,2013-06-07 08:42:00,
2013-06-07 04:47:00,65.7,0.0,29.54,North,0,0.0,0.0,0,0.00,,,0.20,WUHU216HW,2013-06-07 08:47:00,
2013-06-07 04:52:00,65.7,0.0,29.54,North,0,0.0,0.0,0,0.00,,,0.20,WUHU216HW,2013-06-07 08:52:00,
2013-06-07 04:57:00,65.7,0.0,29.54,North,0,0.0,0.0,0,0.00,,,0.20,WUHU216HW,2013-06-07 08:57:00,
2013-06-07 05:02:00,65.9,0.0,29.54,North,0,0.0,0.0,0,0.00,,,0.20,WUHU216HW,2013-06-07 09:02:00,
2013-06-07 05:07:00,65.7,0.0,29.54,North,0,0.0,0.0,0,0.00,,,0.20,WUHU216HW,2013-06-07 09:07:00,
2013-06-07 05:12:00,65.9,0.0,29.53,North,0,0.0,0.0,0,0.00,,,0.20,WUHU216HW,2013-06-07 09:12:00,
2013-06-07 05:17:00,65.9,0.0,29.53,North,0,0.0,0.0,0,0.00,,,0.20,WUHU216HW,2013-06-07 09:17:00,
2013-06-07 05:22:00,65.9,0.0,29.53,North,0,0.0,0.0,0,0.00,,,0.20,WUHU216HW,2013-06-07 09:22:00,
2013-06-07 05:27:00,65.9,0.0,29.53,North,0,0.0,0.0,0,0.00,,,0.20,WUHU216HW,2013-06-07 09:27:00,
2013-06-07 05:32:00,65.9,0.0,29.53,North,0,0.0,0.0,0,0.00,,,0.20,WUHU216HW,2013-06-07 09:32:00,
2013-06-07 05:37:00,65.9,0.0,29.53,North,0,0.0,0.0,0,0.02,,,0.22,WUHU216HW,2013-06-07 09:37:00,
2013-06-07 05:42:00,65.9,0.0,29.53,North,0,0.0,0.0,0,0.02,,,0.22,WUHU216HW,2013-06-07 09:42:00,
2013-06-07 05:47:00,65.9,0.0,29.53,North,0,0.0,0.0,0,0.02,,,0.22,WUHU216HW,2013-06-07 09:47:00,
2013-06-07 05:52:00,65.9,0.0,29.53,North,0,0.0,0.0,0,0.02,,,0.22,WUHU216HW,2013-06-07 09:52:00,
2013-06-07 05:58:00,65.9,0.0,29.53,North,0,0.0,0.0,0,0.02,,,0.22,WUHU216HW,2013-06-07 09:58:00,
2013-06-07 06:03:00,65.9,0.0,29.53,North,0,0.0,0.0,0,0.02,,,0.22,WUHU216HW,2013-06-07 10:03:00,
2013-06-07 06:08:00,65.9,0.0,29.52,North,0,0.0,0.0,0,0.02,,,0.22,WUHU216HW,2013-06-07 10:08:00,
2013-06-07 06:13:00,65.9,0.0,29.52,North,0,0.0,0.0,0,0.02,,,0.22,WUHU216HW,2013-06-07 10:13:00,
2013-06-07 06:18:00,65.9,0.0,29.52,North,0,0.0,0.0,0,0.02,,,0.22,WUHU216HW,2013-06-07 10:18:00,
2013-06-07 06:23:00,65.9,0.0,29.52,North,0,0.0,0.0,0,0.04,,,0.24,WUHU216HW,2013-06-07 10:23:00,
2013-06-07 06:28:00,65.9,0.0,29.52,North,0,0.0,0.0,0,0.04,,,0.24,WUHU216HW,2013-06-07 10:28:00,
2013-06-07 06:33:00,65.9,0.0,29.52,North,0,0.0,0.0,0,0.04,,,0.24,WUHU216HW,2013-06-07 10:33:00,
2013-06-07 06:38:00,65.9,0.0,29.52,North,0,0.0,0.0,0,0.04,,,0.26,WUHU216HW,2013-06-07 10:38:00,
2013-06-07 06:43:00,65.9,0.0,29.52,North,0,0.0,0.0,0,0.04,,,0.26,WUHU216HW,2013-06-07 10:43:00,
2013-06-07 06:48:00,65.9,0.0,29.52,North,0,0.0,0.0,0,0.04,,,0.26,WUHU216HW,2013-06-07 10:48:00,
2013-06-07 06:53:00,65.9,0.0,29.52,North,0,0.0,0.0,0,0.04,,,0.26,WUHU216HW,2013-06-07 10:53:00,
2013-06-07 06:58:00,65.9,0.0,29.52,North,0,0.0,0.0,0,0.04,,,0.26,WUHU216HW,2013-06-07 10:58:00,
2013-06-07 07:03:00,65.9,0.0,29.52,North,0,0.0,0.0,0,0.04,,,0.26,WUHU216HW,2013-06-07 11:03:00,
2013-06-07 07:08:00,65.9,0.0,29.52,North,0,0.0,0.0,0,0.04,,,0.26,WUHU216HW,2013-06-07 11:08:00,
2013-06-07 07:13:00,65.9,0.0,29.52,North,0,0.0,0.0,0,0.04,,,0.26,WUHU216HW,2013-06-07 11:13:00,
2013-06-07 07:18:00,65.9,0.0,29.51,North,0,0.0,0.0,0,0.06,,,0.28,WUHU216HW,2013-06-07 11:18:00,
2013-06-07 07:23:00,65.9,0.0,29.51,North,0,0.0,0.0,0,0.04,,,0.28,WUHU216HW,2013-06-07 11:23:00,
2013-06-07 07:28:00,66.1,0.0,29.51,North,0,0.0,0.0,0,0.04,,,0.28,WUHU216HW,2013-06-07 11:28:00,
2013-06-07 07:33:00,65.9,0.0,29.51,North,0,0.0,0.0,0,0.04,,,0.28,WUHU216HW,2013-06-07 11:33:00,
2013-06-07 07:38:00,66.1,0.0,29.50,North,0,0.0,0.0,0,0.02,,,0.28,WUHU216HW,2013-06-07 11:38:00,
2013-06-07 07:43:00,66.1,0.0,29.50,North,0,0.0,0.0,0,0.02,,,0.28,WUHU216HW,2013-06-07 11:43:00,
2013-06-07 07:48:00,66.1,0.0,29.49,North,0,0.0,0.0,0,0.02,,,0.28,WUHU216HW,2013-06-07 11:48:00,
2013-06-07 07:53:00,66.2,0.0,29.49,North,0,0.0,0.0,0,0.02,,,0.28,WUHU216HW,2013-06-07 11:53:00,
2013-06-07 07:58:00,66.2,0.0,29.49,North,0,0.0,0.0,0,0.02,,,0.28,WUHU216HW,2013-06-07 11:58:00,
2013-06-07 08:03:00,66.6,0.0,29.50,North,0,0.0,0.0,0,0.02,,,0.28,WUHU216HW,2013-06-07 12:03:00,
2013-06-07 08:08:00,66.6,0.0,29.49,North,0,0.0,0.0,0,0.02,,,0.28,WUHU216HW,2013-06-07 12:08:00,
2013-06-07 08:13:00,66.4,0.0,29.50,North,0,0.0,0.0,0,0.02,,,0.28,WUHU216HW,2013-06-07 12:13:00,
2013-06-07 08:18:00,66.6,0.0,29.49,North,0,0.0,0.0,0,0.00,,,0.28,WUHU216HW,2013-06-07 12:18:00,
2013-06-07 08:23:00,66.6,0.0,29.49,North,0,0.0,0.0,0,0.00,,,0.28,WUHU216HW,2013-06-07 12:23:00,
2013-06-07 08:28:00,66.6,0.0,29.49,North,0,0.0,0.0,0,0.00,,,0.28,WUHU216HW,2013-06-07 12:28:00,
2013-06-07 08:33:00,66.6,0.0,29.49,North,0,0.0,0.0,0,0.00,,,0.28,WUHU216HW,2013-06-07 12:33:00,
2013-06-07 08:38:00,66.8,0.0,29.49,North,0,0.0,0.0,0,0.00,,,0.28,WUHU216HW,2013-06-07 12:38:00,
2013-06-07 08:43:00,67.0,0.0,29.49,North,0,0.0,0.0,0,0.00,,,0.28,WUHU216HW,2013-06-07 12:43:00,
2013-06-07 08:48:00,67.0,0.0,29.49,North,0,0.0,0.0,0,0.00,,,0.28,WUHU216HW,2013-06-07 12:48:00,
2013-06-07 08:53:00,67.0,0.0,29.49,North,0,0.0,0.0,0,0.00,,,0.28,WUHU216HW,2013-06-07 12:53:00,
2013-06-07 08:58:00,67.1,0.0,29.49,North,0,0.0,0.0,0,0.00,,,0.28,WUHU216HW,2013-06-07 12:58:00,
2013-06-07 09:03:00,67.1,0.0,29.49,North,0,0.0,0.0,0,0.00,,,0.28,WUHU216HW,2013-06-07 13:03:00,
2013-06-07 09:08:00,67.3,0.0,29.49,North,0,0.0,0.0,0,0.00,,,0.28,WUHU216HW,2013-06-07 13:08:00,
2013-06-07 09:13:00,67.3,0.0,29.49,North,0,0.0,0.0,0,0.00,,,0.28,WUHU216HW,2013-06-07 13:13:00,
2013-06-07 09:18:00,67.3,0.0,29.49,North,0,0.0,0.0,0,0.00,,,0.28,WUHU216HW,2013-06-07 13:18:00,
2013-06-07 09:23:00,67.3,0.0,29.49,North,0,0.0,0.0,0,0.00,,,0.28,WUHU216HW,2013-06-07 13:23:00,
2013-06-07 09:28:00,67.3,0.0,29.49,North,0,0.0,0.0,0,0.00,,,0.28,WUHU216HW,2013-06-07 13:28:00,
2013-06-07 09:33:00,67.1,0.0,29.49,North,0,0.0,0.0,0,0.00,,,0.28,WUHU216HW,2013-06-07 13:33:00,
2013-06-07 09:38:00,67.3,0.0,29.49,North,0,0.0,0.0,0,0.00,,,0.28,WUHU216HW,2013-06-07 13:38:00,
2013-06-07 09:43:00,67.3,0.0,29.48,North,0,0.0,0.0,0,0.00,,,0.28,WUHU216HW,2013-06-07 13:43:00,
2013-06-07 09:48:00,67.5,0.0,29.48,North,0,0.0,0.0,0,0.00,,,0.28,WUHU216HW,2013-06-07 13:48:00,
2013-06-07 09:53:00,67.7,0.0,29.48,North,0,0.0,0.0,0,0.00,,,0.28,WUHU216HW,2013-06-07 13:53:00,
2013-06-07 09:58:00,67.7,0.0,29.48,North,0,0.0,0.0,0,0.00,,,0.28,WUHU216HW,2013-06-07 13:58:00,
2013-06-07 10:03:00,67.7,0.0,29.48,North,0,0.0,0.0,0,0.00,,,0.28,WUHU216HW,2013-06-07 14:03:00,
2013-06-07 10:08:00,67.7,0.0,29.48,North,0,0.0,0.0,0,0.00,,,0.28,WUHU216HW,2013-06-07 14:08:00,
2013-06-07 10:13:00,67.5,0.0,29.48,North,0,0.0,0.0,0,0.00,,,0.28,WUHU216HW,2013-06-07 14:13:00,
2013-06-07 10:18:00,67.3,0.0,29.48,North,0,0.0,0.0,0,0.00,,,0.28,WUHU216HW,2013-06-07 14:18:00,
2013-06-07 10:23:00,67.5,0.0,29.47,North,0,0.0,0.0,0,0.00,,,0.28,WUHU216HW,2013-06-07 14:23:00,
2013-06-07 10:28:00,68.0,0.0,29.47,North,0,0.0,0.0,0,0.00,,,0.28,WUHU216HW,2013-06-07 14:28:00,
2013-06-07 10:33:00,68.0,0.0,29.47,North,0,0.0,0.0,0,0.00,,,0.28,WUHU216HW,2013-06-07 14:33:00,
2013-06-07 10:38:00,68.4,0.0,29.47,North,0,0.0,0.0,0,0.00,,,0.28,WUHU216HW,2013-06-07 14:38:00,
2013-06-07 10:43:00,68.4,0.0,29.47,North,0,0.0,0.0,0,0.00,,,0.28,WUHU216HW,2013-06-07 14:43:00,
2013-06-07 10:48:00,68.4,0.0,29.46,North,0,0.0,0.0,0,0.00,,,0.28,WUHU216HW,2013-06-07 14:48:00,
2013-06-07 10:53:00,68.4,0.0,29.47,North,0,0.0,0.0,0,0.00,,,0.28,WUHU216HW,2013-06-07 14:53:00,
2013-06-07 10:58:00,68.2,0.0,29.47,North,0,0.0,0.0,0,0.00,,,0.28,WUHU216HW,2013-06-07 14:58:00,
2013-06-07 11:03:00,68.0,0.0,29.46,North,0,0.0,0.0,0,0.00,,,0.28,WUHU216HW,2013-06-07 15:03:00,
2013-06-07 11:08:00,68.0,0.0,29.47,North,0,0.0,0.0,0,0.00,,,0.28,WUHU216HW,2013-06-07 15:08:00,
2013-06-07 11:13:00,68.0,0.0,29.46,North,0,0.0,0.0,0,0.00,,,0.28,WUHU216HW,2013-06-07 15:13:00,
2013-06-07 11:18:00,68.0,0.0,29.46,North,0,0.0,0.0,0,0.00,,,0.28,WUHU216HW,2013-06-07 15:18:00,
2013-06-07 11:23:00,68.0,0.0,29.46,North,0,0.0,0.0,0,0.00,,,0.28,WUHU216HW,2013-06-07 15:23:00,
2013-06-07 11:28:00,68.0,0.0,29.47,North,0,0.0,0.0,0,0.00,,,0.28,WUHU216HW,2013-06-07 15:28:00,
2013-06-07 11:33:00,68.2,0.0,29.47,North,0,0.0,0.0,0,0.00,,,0.28,WUHU216HW,2013-06-07 15:33:00,
2013-06-07 11:38:00,68.0,0.0,29.47,North,0,0.0,0.0,0,0.00,,,0.28,WUHU216HW,2013-06-07 15:38:00,
2013-06-07 11:43:00,67.9,0.0,29.47,North,0,0.0,0.0,0,0.00,,,0.28,WUHU216HW,2013-06-07 15:43:00,
2013-06-07 11:48:00,67.7,0.0,29.47,North,0,0.0,0.0,0,0.00,,,0.28,WUHU216HW,2013-06-07 15:48:00,
2013-06-07 11:53:00,67.7,0.0,29.47,North,0,0.0,0.0,0,0.00,,,0.28,WUHU216HW,2013-06-07 15:53:00,
2013-06-07 11:58:00,67.5,0.0,29.47,North,0,0.0,0.0,0,0.00,,,0.28,WUHU216HW,2013-06-07 15:58:00,
2013-06-07 12:03:00,67.5,0.0,29.46,North,0,0.0,0.0,0,0.00,,,0.28,WUHU216HW,2013-06-07 16:03:00,
2013-06-07 12:08:00,67.5,0.0,29.46,North,0,0.0,0.0,0,0.00,,,0.28,WUHU216HW,2013-06-07 16:08:00,
2013-06-07 12:13:00,67.5,0.0,29.46,North,0,0.0,0.0,0,0.00,,,0.28,WUHU216HW,2013-06-07 16:13:00,
2013-06-07 12:18:00,67.3,0.0,29.46,North,0,0.0,0.0,0,0.00,,,0.28,WUHU216HW,2013-06-07 16:18:00,
2013-06-07 12:23:00,67.5,0.0,29.45,North,0,0.0,0.0,0,0.00,,,0.28,WUHU216HW,2013-06-07 16:23:00,
2013-06-07 12:28:00,67.5,0.0,29.46,North,0,0.0,0.0,0,0.00,,,0.28,WUHU216HW,2013-06-07 16:28:00,
2013-06-07 12:33:00,67.7,0.0,29.45,North,0,0.0,0.0,0,0.00,,,0.28,WUHU216HW,2013-06-07 16:33:00,
2013-06-07 12:38:00,67.9,0.0,29.45,North,0,0.0,0.0,0,0.00,,,0.28,WUHU216HW,2013-06-07 16:38:00,
2013-06-07 12:43:00,67.9,0.0,29.45,North,0,0.0,0.0,0,0.00,,,0.28,WUHU216HW,2013-06-07 16:43:00,
2013-06-07 12:47:00,67.9,0.0,29.44,North,0,0.0,0.0,0,0.00,,,0.28,WUHU216HW,2013-06-07 16:47:00,
2013-06-07 12:52:00,67.9,0.0,29.44,North,0,0.0,0.0,0,0.00,,,0.28,WUHU216HW,2013-06-07 16:52:00,
2013-06-07 12:57:00,67.9,0.0,29.44,North,0,0.0,0.0,0,0.00,,,0.28,WUHU216HW,2013-06-07 16:57:00,
2013-06-07 13:02:00,68.0,0.0,29.44,North,0,0.0,0.0,0,0.00,,,0.28,WUHU216HW,2013-06-07 17:02:00,
2013-06-07 13:08:00,68.0,0.0,29.44,North,0,0.0,0.0,0,0.00,,,0.28,WUHU216HW,2013-06-07 17:08:00,
2013-06-07 13:12:00,67.9,0.0,29.45,North,0,0.0,0.0,0,0.00,,,0.28,WUHU216HW,2013-06-07 17:12:00,
2013-06-07 13:17:00,67.9,0.0,29.45,North,0,0.0,0.0,0,0.00,,,0.28,WUHU216HW,2013-06-07 17:17:00,
2013-06-07 13:22:00,67.7,0.0,29.45,North,0,0.0,0.0,0,0.00,,,0.28,WUHU216HW,2013-06-07 17:22:00,
2013-06-07 13:27:00,67.7,0.0,29.45,North,0,0.0,0.0,0,0.00,,,0.28,WUHU216HW,2013-06-07 17:27:00,
2013-06-07 13:32:00,67.7,0.0,29.44,North,0,0.0,0.0,0,0.00,,,0.28,WUHU216HW,2013-06-07 17:32:00,
2013-06-07 13:37:00,67.9,0.0,29.45,North,0,0.0,0.0,0,0.00,,,0.28,WUHU216HW,2013-06-07 17:37:00,
2013-06-07 13:42:00,67.7,0.0,29.45,North,0,0.0,0.0,0,0.00,,,0.28,WUHU216HW,2013-06-07 17:42:00,
2013-06-07 13:47:00,67.7,0.0,29.45,North,0,0.0,0.0,0,0.00,,,0.28,WUHU216HW,2013-06-07 17:47:00,
2013-06-07 13:52:00,67.7,0.0,29.45,North,0,0.0,0.0,0,0.03,,,0.31,WUHU216HW,2013-06-07 17:52:00,
2013-06-07 13:58:00,67.7,0.0,29.45,North,0,0.0,0.0,0,0.03,,,0.31,WUHU216HW,2013-06-07 17:58:00,
2013-06-07 14:03:00,67.7,0.0,29.45,North,0,0.0,0.0,0,0.05,,,0.33,WUHU216HW,2013-06-07 18:03:00,
2013-06-07 14:08:00,67.5,0.0,29.45,North,0,0.0,0.0,0,0.05,,,0.33,WUHU216HW,2013-06-07 18:08:00,
2013-06-07 14:14:00,67.5,0.0,29.45,North,0,0.0,0.0,0,0.05,,,0.33,WUHU216HW,2013-06-07 18:14:00,
2013-06-07 14:19:00,67.5,0.0,29.45,North,0,0.0,0.0,0,0.05,,,0.33,WUHU216HW,2013-06-07 18:19:00,
2013-06-07 14:24:00,67.7,0.0,29.45,North,0,0.0,0.0,0,0.05,,,0.33,WUHU216HW,2013-06-07 18:24:00,
2013-06-07 14:29:00,67.7,0.0,29.45,North,0,0.0,0.0,0,0.05,,,0.33,WUHU216HW,2013-06-07 18:29:00,
2013-06-07 14:34:00,67.9,0.0,29.45,North,0,0.0,0.0,0,0.05,,,0.33,WUHU216HW,2013-06-07 18:34:00,
2013-06-07 14:39:00,68.0,0.0,29.45,North,0,0.0,0.0,0,0.05,,,0.33,WUHU216HW,2013-06-07 18:39:00,
2013-06-07 14:44:00,68.0,0.0,29.45,North,0,0.0,0.0,0,0.05,,,0.33,WUHU216HW,2013-06-07 18:44:00,
2013-06-07 14:50:00,68.2,0.0,29.45,North,0,0.0,0.0,0,0.02,,,0.33,WUHU216HW,2013-06-07 18:50:00,
2013-06-07 14:55:00,68.2,0.0,29.46,North,0,0.0,0.0,0,0.02,,,0.33,WUHU216HW,2013-06-07 18:55:00,
2013-06-07 15:00:00,68.2,0.0,29.46,North,0,0.0,0.0,0,0.02,,,0.33,WUHU216HW,2013-06-07 19:00:00,
2013-06-07 15:05:00,68.4,0.0,29.46,North,0,0.0,0.0,0,0.00,,,0.33,WUHU216HW,2013-06-07 19:05:00,
2013-06-07 15:10:00,68.2,0.0,29.46,North,0,0.0,0.0,0,0.00,,,0.33,WUHU216HW,2013-06-07 19:10:00,
2013-06-07 15:15:00,68.4,0.0,29.46,North,0,0.0,0.0,0,0.00,,,0.33,WUHU216HW,2013-06-07 19:15:00,
2013-06-07 15:21:00,68.6,0.0,29.46,North,0,0.0,0.0,0,0.00,,,0.33,WUHU216HW,2013-06-07 19:21:00,
2013-06-07 15:26:00,69.5,0.0,29.47,North,0,0.0,0.0,0,0.00,,,0.33,WUHU216HW,2013-06-07 19:26:00,
2013-06-07 15:31:00,69.5,0.0,29.47,North,0,0.0,0.0,0,0.00,,,0.33,WUHU216HW,2013-06-07 19:31:00,
2013-06-07 15:35:00,69.5,0.0,29.46,North,0,0.0,0.0,0,0.00,,,0.33,WUHU216HW,2013-06-07 19:35:00,
2013-06-07 15:41:00,69.8,0.0,29.47,North,0,0.0,0.0,0,0.00,,,0.33,WUHU216HW,2013-06-07 19:41:00,
2013-06-07 15:47:00,69.8,0.0,29.46,North,0,0.0,0.0,0,0.00,,,0.33,WUHU216HW,2013-06-07 19:47:00,
2013-06-07 15:52:00,70.2,0.0,29.46,North,0,0.0,0.0,0,0.00,,,0.33,WUHU216HW,2013-06-07 19:52:00,
2013-06-07 15:57:00,70.7,0.0,29.47,North,0,0.0,0.0,0,0.00,,,0.33,WUHU216HW,2013-06-07 19:57:00,
2013-06-07 16:02:00,71.3,0.0,29.47,North,0,0.0,0.0,0,0.00,,,0.33,WUHU216HW,2013-06-07 20:02:00,
2013-06-07 16:07:00,71.8,0.0,29.47,North,0,0.0,0.0,0,0.00,,,0.33,WUHU216HW,2013-06-07 20:07:00,
2013-06-07 16:12:00,72.4,0.0,29.47,North,0,0.0,0.0,0,0.00,,,0.33,WUHU216HW,2013-06-07 20:12:00,
2013-06-07 16:18:00,73.1,0.0,29.47,North,0,0.0,0.0,0,0.00,,,0.33,WUHU216HW,2013-06-07 20:18:00,
2013-06-07 16:23:00,73.1,0.0,29.47,North,0,0.0,0.0,0,0.00,,,0.33,WUHU216HW,2013-06-07 20:23:00,
2013-06-07 16:28:00,73.1,0.0,29.47,North,0,0.0,0.0,0,0.00,,,0.33,WUHU216HW,2013-06-07 20:28:00,
2013-06-07 16:33:00,74.2,0.0,29.47,North,0,0.0,0.0,0,0.00,,,0.33,WUHU216HW,2013-06-07 20:33:00,
2013-06-07 16:38:00,74.9,0.0,29.47,North,0,0.0,0.0,0,0.00,,,0.33,WUHU216HW,2013-06-07 20:38:00,
2013-06-07 16:44:00,76.0,0.0,29.47,North,0,0.0,0.0,0,0.00,,,0.33,WUHU216HW,2013-06-07 20:44:00,
2013-06-07 16:49:00,76.3,0.0,29.47,North,0,0.0,0.0,0,0.00,,,0.33,WUHU216HW,2013-06-07 20:49:00,
2013-06-07 16:54:00,75.6,0.0,29.47,North,0,0.0,0.0,0,0.00,,,0.33,WUHU216HW,2013-06-07 20:54:00,
2013-06-07 16:59:00,74.7,0.0,29.47,North,0,0.0,0.0,0,0.00,,,0.33,WUHU216HW,2013-06-07 20:59:00,
2013-06-07 17:04:00,74.2,0.0,29.47,North,0,0.0,0.0,0,0.00,,,0.33,WUHU216HW,2013-06-07 21:04:00,
2013-06-07 17:09:00,74.0,0.0,29.47,North,0,0.0,0.0,0,0.00,,,0.33,WUHU216HW,2013-06-07 21:09:00,
2013-06-07 17:14:00,73.8,0.0,29.47,North,0,0.0,0.0,0,0.00,,,0.33,WUHU216HW,2013-06-07 21:14:00,
2013-06-07 17:19:00,73.8,0.0,29.48,North,0,0.0,0.0,0,0.00,,,0.33,WUHU216HW,2013-06-07 21:19:00,
2013-06-07 17:24:00,73.4,0.0,29.48,North,0,0.0,0.0,0,0.00,,,0.33,WUHU216HW,2013-06-07 21:24:00,
2013-06-07 17:29:00,73.1,0.0,29.48,North,0,0.0,0.0,0,0.00,,,0.33,WUHU216HW,2013-06-07 21:29:00,
2013-06-07 17:35:00,72.7,0.0,29.49,North,0,0.0,0.0,0,0.00,,,0.33,WUHU216HW,2013-06-07 21:35:00,
2013-06-07 17:40:00,72.0,0.0,29.49,North,0,0.0,0.0,0,0.06,,,0.39,WUHU216HW,2013-06-07 21:40:00,
2013-06-07 17:45:00,71.5,0.0,29.49,North,0,0.0,0.0,0,0.15,,,0.48,WUHU216HW,2013-06-07 21:45:00,
2013-06-07 17:50:00,70.9,0.0,29.49,North,0,0.0,0.0,0,0.39,,,0.72,WUHU216HW,2013-06-07 21:50:00,
2013-06-07 17:55:00,70.9,0.0,29.49,North,0,0.0,0.0,0,0.56,,,0.89,WUHU216HW,2013-06-07 21:55:00,
2013-06-07 18:00:00,70.9,0.0,29.49,North,0,0.0,0.0,0,0.58,,,0.91,WUHU216HW,2013-06-07 22:00:00,
2013-06-07 18:05:00,70.7,0.0,29.49,North,0,0.0,0.0,0,0.58,,,0.91,WUHU216HW,2013-06-07 22:05:00,
2013-06-07 18:10:00,70.9,0.0,29.50,North,0,0.0,0.0,0,0.58,,,0.91,WUHU216HW,2013-06-07 22:10:00,
2013-06-07 18:15:00,71.6,0.0,29.50,North,0,0.0,0.0,0,0.58,,,0.91,WUHU216HW,2013-06-07 22:15:00,
2013-06-07 18:21:00,72.7,0.0,29.50,North,0,0.0,0.0,0,0.58,,,0.91,WUHU216HW,2013-06-07 22:21:00,
2013-06-07 18:26:00,73.6,0.0,29.50,North,0,0.0,0.0,0,0.58,,,0.91,WUHU216HW,2013-06-07 22:26:00,
2013-06-07 18:32:00,72.9,0.0,29.50,North,0,0.0,0.0,0,0.58,,,0.91,WUHU216HW,2013-06-07 22:32:00,
2013-06-07 18:37:00,72.7,0.0,29.51,North,0,0.0,0.0,0,0.56,,,0.91,WUHU216HW,2013-06-07 22:37:00,
2013-06-07 18:42:00,72.9,0.0,29.51,North,0,0.0,0.0,0,0.52,,,0.91,WUHU216HW,2013-06-07 22:42:00,
2013-06-07 18:48:00,73.1,0.0,29.52,North,0,0.0,0.0,0,0.43,,,0.91,WUHU216HW,2013-06-07 22:48:00,
2013-06-07 18:53:00,72.9,0.0,29.52,North,0,0.0,0.0,0,0.02,,,0.91,WUHU216HW,2013-06-07 22:53:00,
2013-06-07 18:58:00,72.5,0.0,29.52,North,0,0.0,0.0,0,0.00,,,0.91,WUHU216HW,2013-06-07 22:58:00,
2013-06-07 19:03:00,72.5,0.0,29.52,North,0,0.0,0.0,0,0.00,,,0.91,WUHU216HW,2013-06-07 23:03:00,
2013-06-07 19:08:00,72.7,0.0,29.52,North,0,0.0,0.0,0,0.00,,,0.91,WUHU216HW,2013-06-07 23:08:00,
2013-06-07 19:13:00,73.6,0.0,29.52,North,0,0.0,0.0,0,0.00,,,0.91,WUHU216HW,2013-06-07 23:13:00,
2013-06-07 19:18:00,73.3,0.0,29.53,North,0,0.0,0.0,0,0.00,,,0.91,WUHU216HW,2013-06-07 23:18:00,
2013-06-07 19:23:00,73.1,0.0,29.53,North,0,0.0,0.0,0,0.00,,,0.91,WUHU216HW,2013-06-07 23:23:00,
2013-06-07 19:28:00,72.9,0.0,29.53,North,0,0.0,0.0,0,0.00,,,0.91,WUHU216HW,2013-06-07 23:28:00,
2013-06-07 19:33:00,72.5,0.0,29.53,North,0,0.0,0.0,0,0.00,,,0.91,WUHU216HW,2013-06-07 23:33:00,
2013-06-07 19:38:00,72.5,0.0,29.53,North,0,0.0,0.0,0,0.00,,,0.91,WUHU216HW,2013-06-07 23:38:00,
2013-06-07 19:44:00,72.5,0.0,29.54,North,0,0.0,0.0,0,0.00,,,0.91,WUHU216HW,2013-06-07 23:44:00,
2013-06-07 19:49:00,72.4,0.0,29.54,North,0,0.0,0.0,0,0.00,,,0.91,WUHU216HW,2013-06-07 23:49:00,
2013-06-07 19:54:00,72.0,0.0,29.54,North,0,0.0,0.0,0,0.00,,,0.91,WUHU216HW,2013-06-07 23:54:00,
2013-06-07 19:59:00,71.6,0.0,29.55,North,0,0.0,0.0,0,0.00,,,0.91,WUHU216HW,2013-06-07 23:59:00,
2013-06-07 20:04:00,71.5,0.0,29.55,North,0,0.0,0.0,0,0.00,,,0.91,WUHU216HW,2013-06-08 00:04:00,
2013-06-07 20:09:00,70.9,0.0,29.56,North,0,0.0,0.0,0,0.00,,,0.91,WUHU216HW,2013-06-08 00:09:00,
2013-06-07 20:14:00,70.6,0.0,29.56,North,0,0.0,0.0,0,0.00,,,0.91,WUHU216HW,2013-06-08 00:14:00,
2013-06-07 20:19:00,70.4,0.0,29.56,North,0,0.0,0.0,0,0.00,,,0.91,WUHU216HW,2013-06-08 00:19:00,
2013-06-07 20:25:00,70.0,0.0,29.57,North,0,0.0,0.0,0,0.00,,,0.91,WUHU216HW,2013-06-08 00:25:00,
2013-06-07 20:30:00,69.7,0.0,29.57,North,0,0.0,0.0,0,0.00,,,0.91,WUHU216HW,2013-06-08 00:30:00,
2013-06-07 20:35:00,69.5,0.0,29.57,North,0,0.0,0.0,0,0.00,,,0.91,WUHU216HW,2013-06-08 00:35:00,
2013-06-07 20:40:00,69.1,0.0,29.57,North,0,0.0,0.0,0,0.00,,,0.91,WUHU216HW,2013-06-08 00:40:00,
2013-06-07 20:45:00,69.1,0.0,29.57,North,0,0.0,0.0,0,0.00,,,0.91,WUHU216HW,2013-06-08 00:45:00,
2013-06-07 20:51:00,68.9,0.0,29.58,North,0,0.0,0.0,0,0.00,,,0.91,WUHU216HW,2013-06-08 00:51:00,
2013-06-07 20:56:00,68.6,0.0,29.58,North,0,0.0,0.0,0,0.00,,,0.91,WUHU216HW,2013-06-08 00:56:00,
2013-06-07 21:01:00,68.4,0.0,29.58,North,0,0.0,0.0,0,0.00,,,0.91,WUHU216HW,2013-06-08 01:01:00,
2013-06-07 21:07:00,68.4,0.0,29.59,North,0,0.0,0.0,0,0.00,,,0.91,WUHU216HW,2013-06-08 01:07:00,
2013-06-07 21:12:00,68.0,0.0,29.59,North,0,0.0,0.0,0,0.00,,,0.91,WUHU216HW,2013-06-08 01:12:00,
2013-06-07 21:17:00,68.0,0.0,29.59,North,0,0.0,0.0,0,0.00,,,0.91,WUHU216HW,2013-06-08 01:17:00,
2013-06-07 21:22:00,67.9,0.0,29.59,North,0,0.0,0.0,0,0.00,,,0.91,WUHU216HW,2013-06-08 01:22:00,
2013-06-07 21:27:00,67.7,0.0,29.59,North,0,0.0,0.0,0,0.00,,,0.91,WUHU216HW,2013-06-08 01:27:00,
2013-06-07 21:32:00,67.7,0.0,29.59,North,0,0.0,0.0,0,0.00,,,0.91,WUHU216HW,2013-06-08 01:32:00,
2013-06-07 21:38:00,67.7,0.0,29.60,North,0,0.0,0.0,0,0.00,,,0.91,WUHU216HW,2013-06-08 01:38:00,
2013-06-07 21:43:00,67.5,0.0,29.60,North,0,0.0,0.0,0,0.00,,,0.91,WUHU216HW,2013-06-08 01:43:00,
2013-06-07 21:48:00,67.5,0.0,29.60,North,0,0.0,0.0,0,0.00,,,0.91,WUHU216HW,2013-06-08 01:48:00,
2013-06-07 21:53:00,67.7,0.0,29.61,North,0,0.0,0.0,0,0.00,,,0.91,WUHU216HW,2013-06-08 01:53:00,
2013-06-07 21:58:00,67.7,0.0,29.61,North,0,0.0,0.0,0,0.00,,,0.91,WUHU216HW,2013-06-08 01:58:00,
2013-06-07 22:03:00,67.5,0.0,29.61,North,0,0.0,0.0,0,0.00,,,0.91,WUHU216HW,2013-06-08 02:03:00,
2013-06-07 22:08:00,67.5,0.0,29.61,North,0,0.0,0.0,0,0.00,,,0.91,WUHU216HW,2013-06-08 02:08:00,
2013-06-07 22:13:00,67.3,0.0,29.62,North,0,0.0,0.0,0,0.02,,,0.93,WUHU216HW,2013-06-08 02:13:00,
2013-06-07 22:18:00,67.3,0.0,29.62,North,0,0.0,0.0,0,0.02,,,0.93,WUHU216HW,2013-06-08 02:18:00,
2013-06-07 22:23:00,67.3,0.0,29.62,North,0,0.0,0.0,0,0.02,,,0.93,WUHU216HW,2013-06-08 02:23:00,
2013-06-07 22:29:00,67.3,0.0,29.62,North,0,0.0,0.0,0,0.02,,,0.93,WUHU216HW,2013-06-08 02:29:00,
2013-06-07 22:34:00,67.3,0.0,29.62,North,0,0.0,0.0,0,0.02,,,0.93,WUHU216HW,2013-06-08 02:34:00,
2013-06-07 22:39:00,67.3,0.0,29.63,North,0,0.0,0.0,0,0.02,,,0.93,WUHU216HW,2013-06-08 02:39:00,
2013-06-07 22:44:00,67.3,0.0,29.63,North,0,0.0,0.0,0,0.02,,,0.93,WUHU216HW,2013-06-08 02:44:00,
2013-06-07 22:49:00,67.3,0.0,29.63,North,0,0.0,0.0,0,0.02,,,0.93,WUHU216HW,2013-06-08 02:49:00,
2013-06-07 22:54:00,67.3,0.0,29.63,North,0,0.0,0.0,0,0.02,,,0.93,WUHU216HW,2013-06-08 02:54:00,
2013-06-07 22:59:00,67.5,0.0,29.64,North,0,0.0,0.0,0,0.02,,,0.93,WUHU216HW,2013-06-08 02:59:00,
2013-06-07 23:05:00,67.5,0.0,29.63,North,0,0.0,0.0,0,0.02,,,0.93,WUHU216HW,2013-06-08 03:05:00,
2013-06-07 23:10:00,67.7,0.0,29.64,North,0,0.0,0.0,0,0.02,,,0.93,WUHU216HW,2013-06-08 03:10:00,
2013-06-07 23:15:00,67.9,0.0,29.64,North,0,0.0,0.0,0,0.00,,,0.93,WUHU216HW,2013-06-08 03:15:00,
2013-06-07 23:20:00,68.0,0.0,29.64,North,0,0.0,0.0,0,0.00,,,0.93,WUHU216HW,2013-06-08 03:20:00,
2013-06-07 23:25:00,68.2,0.0,29.64,North,0,0.0,0.0,0,0.00,,,0.93,WUHU216HW,2013-06-08 03:25:00,
2013-06-07 23:30:00,68.0,0.0,29.64,North,0,0.0,0.0,0,0.00,,,0.93,WUHU216HW,2013-06-08 03:30:00,
2013-06-07 23:35:00,68.0,0.0,29.64,North,0,0.0,0.0,0,0.00,,,0.93,WUHU216HW,2013-06-08 03:35:00,
2013-06-07 23:40:00,68.0,0.0,29.64,North,0,0.0,0.0,0,0.00,,,0.93,WUHU216HW,2013-06-08 03:40:00,
2013-06-07 23:45:00,68.0,0.0,29.64,North,0,0.0,0.0,0,0.00,,,0.93,WUHU216HW,2013-06-08 03:45:00,
2013-06-07 23:50:00,68.0,0.0,29.64,North,0,0.0,0.0,0,0.00,,,0.93,WUHU216HW,2013-06-08 03:50:00,
2013-06-07 23:56:00,67.9,0.0,29.65,North,0,0.0,0.0,0,0.00,,,0.93,WUHU216HW,2013-06-08 03:56:00,